Time;durP1;ratioP1;P1;durP2;ratioP2;P2;SDS_P1;SDS_P2;PMS_P1;PMS_P2;Temp;Humidity;BMP_temperature;BMP_pressure;BME280_temperature;BME280_humidity;BME280_pressure;Samples;Min_cycle;Max_cycle;Signal;HPM_P1;HPM_P2
2022/03/04 00:01:11;;;;;;;9.00;7.70;;;;;;;1.14;100.00;101845.75;5005417;28;20260;-56
2022/03/04 00:03:38;;;;;;;7.97;7.03;;;;;;;1.30;100.00;101850.09;5004000;28;20881;-59
2022/03/04 00:06:06;;;;;;;8.97;8.07;;;;;;;1.25;100.00;101859.28;5001345;28;20239;-55
2022/03/04 00:08:32;;;;;;;10.40;6.53;;;;;;;1.45;100.00;101868.13;5017250;28;20236;-55
2022/03/04 00:10:58;;;;;;;8.73;6.27;;;;;;;1.72;100.00;101860.97;5020377;28;20282;-57
2022/03/04 00:13:25;;;;;;;8.60;7.03;;;;;;;1.83;100.00;101865.00;5015500;28;20286;-54
2022/03/04 00:15:51;;;;;;;8.57;6.63;;;;;;;1.82;100.00;101868.38;5005544;28;20245;-57
2022/03/04 00:18:18;;;;;;;10.43;6.97;;;;;;;1.78;100.00;101869.03;4993838;28;20235;-57
2022/03/04 00:20:44;;;;;;;7.53;6.73;;;;;;;1.43;100.00;101867.16;5007426;28;20267;-57
2022/03/04 00:23:12;;;;;;;7.13;6.43;;;;;;;1.75;100.00;101867.97;4996292;28;20231;-58
2022/03/04 00:25:38;;;;;;;10.07;7.00;;;;;;;1.91;100.00;101861.09;5015160;28;20239;-55
2022/03/04 00:28:05;;;;;;;7.40;5.80;;;;;;;1.89;100.00;101862.72;5013481;28;20239;-57
2022/03/04 00:30:31;;;;;;;7.53;6.70;;;;;;;1.70;100.00;101864.28;5022359;28;20318;-55
2022/03/04 00:32:58;;;;;;;8.60;6.67;;;;;;;1.61;100.00;101857.78;5013141;28;20248;-55
2022/03/04 00:35:25;;;;;;;9.20;6.97;;;;;;;1.54;100.00;101859.97;5018709;28;20307;-58
2022/03/04 00:37:51;;;;;;;7.40;6.43;;;;;;;1.57;100.00;101866.19;5011646;28;20782;-56
2022/03/04 00:40:19;;;;;;;7.47;6.63;;;;;;;1.60;100.00;101871.53;5013515;28;20313;-57
2022/03/04 00:42:45;;;;;;;7.43;6.40;;;;;;;1.43;100.00;101878.38;5019727;28;20736;-57
2022/03/04 00:45:12;;;;;;;9.73;6.43;;;;;;;1.35;100.00;101882.25;5021847;28;20288;-57
2022/03/04 00:47:38;;;;;;;9.50;6.60;;;;;;;1.22;100.00;101889.25;5009319;28;20359;-59
2022/03/04 00:50:06;;;;;;;8.90;6.83;;;;;;;1.21;100.00;101882.31;5016054;28;20301;-55
2022/03/04 00:52:32;;;;;;;10.73;6.47;;;;;;;1.21;100.00;101883.19;5008686;28;20248;-54
2022/03/04 00:54:59;;;;;;;11.57;7.20;;;;;;;1.45;100.00;101895.72;5015069;28;20282;-56
2022/03/04 00:57:26;;;;;;;10.90;7.83;;;;;;;1.40;100.00;101891.19;5019623;28;20267;-56
2022/03/04 00:59:53;;;;;;;12.80;6.77;;;;;;;1.27;100.00;101899.06;5014338;28;20819;-56
2022/03/04 01:02:19;;;;;;;8.00;5.80;;;;;;;1.27;100.00;101891.31;5003940;28;20258;-55
2022/03/04 01:04:45;;;;;;;11.07;6.63;;;;;;;1.25;100.00;101884.25;5012063;28;20235;-56
2022/03/04 01:07:12;;;;;;;8.77;6.77;;;;;;;1.31;100.00;101889.78;5010193;28;20671;-56
2022/03/04 01:09:38;;;;;;;10.30;5.73;;;;;;;1.31;100.00;101890.66;5009453;28;20293;-56
2022/03/04 01:12:06;;;;;;;7.77;5.63;;;;;;;1.24;100.00;101892.84;5019224;28;20268;-56
2022/03/04 01:14:33;;;;;;;10.47;6.80;;;;;;;1.26;100.00;101891.22;5015546;28;20298;-55
2022/03/04 01:17:00;;;;;;;9.30;6.63;;;;;;;1.17;100.00;101891.59;5015662;28;20233;-59
2022/03/04 01:19:26;;;;;;;7.83;6.33;;;;;;;1.20;100.00;101889.19;5023228;28;20235;-55
2022/03/04 01:21:53;;;;;;;7.77;6.87;;;;;;;1.17;100.00;101891.59;5014748;28;20240;-56
2022/03/04 01:24:19;;;;;;;8.57;6.07;;;;;;;1.17;100.00;101894.19;5016027;28;20231;-55
2022/03/04 01:26:45;;;;;;;13.63;6.60;;;;;;;1.31;100.00;101898.44;5001351;28;20240;-56
2022/03/04 01:29:11;;;;;;;8.60;6.60;;;;;;;1.18;100.00;101894.25;4998872;28;20227;-55
2022/03/04 01:31:39;;;;;;;7.03;5.80;;;;;;;1.38;100.00;101886.72;5013030;28;20251;-58
2022/03/04 01:34:06;;;;;;;8.47;6.27;;;;;;;1.52;100.00;101890.06;5010529;28;20251;-56
2022/03/04 01:36:33;;;;;;;9.57;6.40;;;;;;;1.50;100.00;101889.97;5024410;28;20236;-56
2022/03/04 01:39:00;;;;;;;8.57;6.20;;;;;;;1.60;100.00;101889.66;5017259;28;20251;-58
2022/03/04 01:41:26;;;;;;;5.93;5.33;;;;;;;1.59;100.00;101889.59;5010015;28;20907;-55
2022/03/04 01:43:52;;;;;;;9.37;6.87;;;;;;;1.54;100.00;101889.31;5019092;28;20236;-55
2022/03/04 01:46:20;;;;;;;13.77;6.27;;;;;;;1.40;100.00;101874.75;5000376;28;20239;-58
2022/03/04 01:48:47;;;;;;;9.80;6.60;;;;;;;1.64;100.00;101880.34;4998268;28;20310;-56
2022/03/04 01:51:14;;;;;;;11.00;6.47;;;;;;;1.71;100.00;101882.47;5007268;28;20263;-57
2022/03/04 01:53:41;;;;;;;10.47;6.60;;;;;;;1.61;100.00;101875.91;5017847;28;20231;-58
2022/03/04 01:56:07;;;;;;;8.63;6.70;;;;;;;2.01;100.00;101865.06;5005092;28;20308;-58
2022/03/04 01:58:34;;;;;;;7.43;6.00;;;;;;;2.15;100.00;101881.31;5012053;28;20599;-55
2022/03/04 02:01:00;;;;;;;10.20;6.60;;;;;;;2.05;100.00;101868.72;5004043;28;20360;-59
2022/03/04 02:03:26;;;;;;;8.60;6.20;;;;;;;2.15;99.13;101877.03;5009107;28;20858;-55
2022/03/04 02:05:54;;;;;;;13.03;6.63;;;;;;;1.94;100.00;101867.28;5007787;28;20555;-57
2022/03/04 02:08:21;;;;;;;11.10;7.00;;;;;;;1.74;100.00;101859.31;5015647;28;20255;-57
2022/03/04 02:10:47;;;;;;;7.63;5.57;;;;;;;1.67;100.00;101872.75;5006616;28;20243;-57
2022/03/04 02:13:15;;;;;;;8.87;6.37;;;;;;;1.60;100.00;101862.88;5003761;28;20266;-56
2022/03/04 02:15:43;;;;;;;11.23;6.57;;;;;;;1.53;100.00;101861.66;4997631;28;20243;-59
2022/03/04 02:18:13;;;;;;;10.07;6.67;;;;;;;1.57;100.00;101862.72;4992669;28;20260;-58
2022/03/04 02:20:42;;;;;;;8.77;6.77;;;;;;;1.52;100.00;101866.78;5013814;28;20239;-59
2022/03/04 02:23:12;;;;;;;16.07;7.03;;;;;;;1.54;100.00;101866.03;5016873;28;20305;-58
2022/03/04 02:25:40;;;;;;;10.93;5.70;;;;;;;1.50;100.00;101860.63;5015572;28;20332;-57
2022/03/04 02:28:07;;;;;;;11.67;5.80;;;;;;;1.55;100.00;101865.25;5018676;28;20278;-54
2022/03/04 02:30:34;;;;;;;9.23;5.57;;;;;;;1.48;100.00;101872.59;5017516;28;20236;-58
2022/03/04 02:33:00;;;;;;;7.80;5.23;;;;;;;1.44;100.00;101879.31;5021750;28;20760;-56
2022/03/04 02:35:28;;;;;;;7.47;5.17;;;;;;;1.43;100.00;101880.97;5013445;28;20236;-58
2022/03/04 02:37:54;;;;;;;7.43;5.40;;;;;;;1.40;100.00;101879.91;5021998;28;20317;-57
2022/03/04 02:40:22;;;;;;;17.03;5.47;;;;;;;1.63;100.00;101878.59;5013768;28;20241;-58
2022/03/04 02:42:48;;;;;;;7.67;4.70;;;;;;;1.55;100.00;101885.94;5023783;28;20652;-57
2022/03/04 02:45:15;;;;;;;7.10;4.63;;;;;;;1.53;100.00;101886.66;5017028;28;20826;-57
2022/03/04 02:47:42;;;;;;;8.07;5.33;;;;;;;1.83;100.00;101877.94;5015202;28;20283;-57
2022/03/04 02:50:09;;;;;;;10.00;5.13;;;;;;;1.84;100.00;101879.72;5017880;28;20239;-56
2022/03/04 02:52:35;;;;;;;7.53;4.43;;;;;;;1.83;100.00;101883.13;5021820;28;20720;-58
2022/03/04 02:55:02;;;;;;;7.20;5.13;;;;;;;1.78;100.00;101889.75;5019398;28;20851;-56
2022/03/04 02:57:30;;;;;;;8.07;4.53;;;;;;;1.63;100.00;101876.00;5019834;28;20277;-56
2022/03/04 02:59:56;;;;;;;7.73;5.03;;;;;;;1.61;100.00;101875.00;5005267;28;20235;-55
2022/03/04 03:02:22;;;;;;;9.10;6.37;;;;;;;1.55;100.00;101874.72;5003921;28;20239;-58
2022/03/04 03:04:49;;;;;;;9.20;5.43;;;;;;;1.50;100.00;101874.44;5004902;28;20728;-57
2022/03/04 03:07:15;;;;;;;11.07;5.40;;;;;;;1.67;100.00;101877.94;5021131;28;20871;-56
2022/03/04 03:09:41;;;;;;;6.43;4.73;;;;;;;1.57;100.00;101878.25;5013665;28;20236;-54
2022/03/04 03:12:09;;;;;;;12.30;5.67;;;;;;;1.66;100.00;101873.56;5018451;28;20255;-56
2022/03/04 03:14:37;;;;;;;9.80;5.37;;;;;;;1.66;100.00;101877.03;5021952;28;20250;-56
2022/03/04 03:17:04;;;;;;;6.70;5.20;;;;;;;1.57;100.00;101878.25;5019507;28;20257;-58
2022/03/04 03:19:30;;;;;;;7.07;4.60;;;;;;;1.56;100.00;101879.06;5015782;28;20244;-56
2022/03/04 03:21:56;;;;;;;11.27;5.53;;;;;;;1.40;100.00;101886.00;5003233;28;20712;-57
2022/03/04 03:24:23;;;;;;;9.67;5.97;;;;;;;1.45;100.00;101881.06;5010865;28;20301;-58
2022/03/04 03:26:49;;;;;;;8.00;4.93;;;;;;;1.50;100.00;101887.38;5005851;28;20225;-57
2022/03/04 03:29:15;;;;;;;6.83;5.03;;;;;;;1.51;100.00;101883.09;4993401;28;20315;-57
2022/03/04 03:31:43;;;;;;;7.03;5.87;;;;;;;1.53;100.00;101876.31;4999250;28;20263;-57
2022/03/04 03:34:09;;;;;;;4.83;4.33;;;;;;;1.40;100.00;101879.91;5015190;28;20239;-57
2022/03/04 03:36:35;;;;;;;5.87;4.90;;;;;;;1.45;100.00;101878.50;5002291;28;20689;-55
2022/03/04 03:39:02;;;;;;;8.10;5.50;;;;;;;1.40;100.00;101880.84;5015814;28;20648;-56
2022/03/04 03:41:28;;;;;;;7.47;4.40;;;;;;;1.77;100.00;101876.72;5007302;28;20842;-57
2022/03/04 03:43:55;;;;;;;9.07;5.30;;;;;;;1.58;100.00;101874.84;5010164;28;20256;-56
2022/03/04 03:46:21;;;;;;;8.33;5.37;;;;;;;1.49;100.00;101871.78;5006673;28;20232;-57
2022/03/04 03:48:50;;;;;;;7.37;5.17;;;;;;;1.42;100.00;101876.63;5005169;28;20282;-55
2022/03/04 03:51:16;;;;;;;10.00;5.37;;;;;;;1.47;100.00;101879.44;5008667;28;20315;-57
2022/03/04 03:53:42;;;;;;;8.83;5.67;;;;;;;1.48;100.00;101873.47;5006210;28;20245;-57
2022/03/04 03:56:09;;;;;;;9.60;6.20;;;;;;;1.47;100.00;101876.84;5020384;28;20258;-58
2022/03/04 03:58:35;;;;;;;10.30;5.30;;;;;;;1.48;100.00;101873.47;5007231;28;20776;-56
2022/03/04 04:01:02;;;;;;;10.07;5.80;;;;;;;1.53;100.00;101878.91;5022668;28;20293;-55
2022/03/04 04:03:29;;;;;;;7.50;5.40;;;;;;;1.49;100.00;101858.84;5019167;28;20241;-59
2022/03/04 04:05:57;;;;;;;10.37;6.17;;;;;;;1.42;100.00;101868.84;5012702;28;20262;-59
2022/03/04 04:08:23;;;;;;;10.77;5.93;;;;;;;1.49;100.00;101866.59;5017060;28;20244;-59
2022/03/04 04:10:50;;;;;;;10.07;6.10;;;;;;;1.61;100.00;101875.91;5012930;28;20252;-57
2022/03/04 04:13:16;;;;;;;20.50;9.03;;;;;;;1.57;100.00;101867.91;5016231;28;20266;-56
2022/03/04 04:15:42;;;;;;;14.97;7.87;;;;;;;1.61;100.00;101859.47;5019544;28;20302;-57
2022/03/04 04:18:09;;;;;;;16.37;9.00;;;;;;;1.55;100.00;101869.53;5004806;28;20282;-56
2022/03/04 04:20:36;;;;;;;10.60;8.47;;;;;;;1.89;100.00;101873.06;5003391;28;20306;-57
2022/03/04 04:23:03;;;;;;;17.17;8.93;;;;;;;1.89;100.00;101880.84;5018022;28;20250;-58
2022/03/04 04:25:30;;;;;;;11.60;6.87;;;;;;;1.93;100.00;101876.75;5022556;28;20267;-58
2022/03/04 04:27:56;;;;;;;10.97;7.40;;;;;;;1.91;100.00;101875.75;5023584;28;20259;-57
2022/03/04 04:30:22;;;;;;;10.70;7.43;;;;;;;1.92;100.00;101875.81;5011706;28;20245;-56
2022/03/04 04:32:49;;;;;;;9.73;6.57;;;;;;;1.94;100.00;101872.44;5003622;28;20290;-56
2022/03/04 04:35:15;;;;;;;12.00;6.67;;;;;;;1.90;100.00;101866.22;5006495;28;20256;-57
2022/03/04 04:37:41;;;;;;;9.27;5.60;;;;;;;1.95;100.00;101876.81;5000765;28;20741;-56
2022/03/04 04:40:11;;;;;;;8.33;6.40;;;;;;;1.94;100.00;101885.41;5007471;28;20280;-57
2022/03/04 04:42:37;;;;;;;9.60;6.07;;;;;;;2.07;100.00;101882.59;5021327;28;20239;-56
2022/03/04 04:45:04;;;;;;;10.10;6.57;;;;;;;2.04;100.00;101887.66;5019876;28;20236;-56
2022/03/04 04:47:31;;;;;;;10.53;6.17;;;;;;;2.06;100.00;101884.31;5016962;28;20237;-56
2022/03/04 04:49:57;;;;;;;9.03;6.67;;;;;;;2.09;100.00;101886.19;5016894;28;20240;-56
2022/03/04 04:52:24;;;;;;;8.17;5.83;;;;;;;2.03;100.00;101886.75;5016776;28;20280;-58
2022/03/04 04:54:50;;;;;;;9.77;6.87;;;;;;;2.08;100.00;101880.13;5017475;28;20389;-57
2022/03/04 04:57:18;;;;;;;7.70;5.33;;;;;;;2.07;100.00;101883.53;5018002;28;20255;-57
2022/03/04 04:59:44;;;;;;;6.60;4.90;;;;;;;1.98;100.00;101885.63;5016562;28;20584;-57
2022/03/04 05:02:10;;;;;;;8.57;6.00;;;;;;;2.08;100.00;101887.88;5002787;28;20232;-58
2022/03/04 05:04:37;;;;;;;5.90;4.63;;;;;;;1.96;100.00;101884.63;5000924;28;20241;-58
2022/03/04 05:07:04;;;;;;;8.30;5.67;;;;;;;1.99;100.00;101889.09;5006586;28;20318;-56
2022/03/04 05:09:30;;;;;;;10.53;4.77;;;;;;;1.91;100.00;101884.41;5006544;28;20822;-58
2022/03/04 05:11:57;;;;;;;5.90;5.07;;;;;;;1.87;100.00;101891.94;4999863;28;20896;-57
2022/03/04 05:14:24;;;;;;;6.23;4.23;;;;;;;1.94;100.00;101880.22;5005970;28;20303;-55
2022/03/04 05:16:51;;;;;;;4.70;4.00;;;;;;;1.79;100.00;101886.38;5008895;28;20272;-57
2022/03/04 05:19:17;;;;;;;6.90;4.50;;;;;;;1.72;100.00;101884.25;5009233;28;20741;-56
2022/03/04 05:21:43;;;;;;;6.13;3.80;;;;;;;1.70;100.00;101880.69;5009447;28;20893;-57
2022/03/04 05:24:11;;;;;;;4.53;3.60;;;;;;;1.63;100.00;101883.75;5019477;28;20254;-57
2022/03/04 05:26:40;;;;;;;7.33;3.90;;;;;;;1.77;100.00;101887.97;5007582;28;20237;-56
2022/03/04 05:29:09;;;;;;;9.97;5.47;;;;;;;1.72;100.00;101892.03;4993281;28;20270;-57
2022/03/04 05:31:37;;;;;;;7.17;4.77;;;;;;;1.75;100.00;101897.34;5009676;28;20264;-56
2022/03/04 05:34:03;;;;;;;7.33;3.93;;;;;;;1.75;100.00;101904.22;5020794;28;20236;-58
2022/03/04 05:36:30;;;;;;;7.27;4.20;;;;;;;1.64;100.00;101901.06;5002479;28;20916;-58
2022/03/04 05:38:56;;;;;;;7.87;3.50;;;;;;;1.71;100.00;101907.47;5014707;28;20239;-58
2022/03/04 05:41:23;;;;;;;4.90;3.77;;;;;;;1.70;100.00;101909.16;5012415;28;20271;-56
2022/03/04 05:43:49;;;;;;;4.27;3.87;;;;;;;1.66;100.00;101905.53;5015549;28;20275;-55
2022/03/04 05:46:16;;;;;;;3.93;3.27;;;;;;;1.63;100.00;101912.22;5014939;28;20229;-58
2022/03/04 05:48:44;;;;;;;6.80;3.93;;;;;;;1.58;100.00;101909.41;5018125;28;20290;-56
2022/03/04 05:51:11;;;;;;;5.87;3.57;;;;;;;1.58;100.00;101906.81;5010933;28;20739;-58
2022/03/04 05:53:38;;;;;;;3.53;3.10;;;;;;;1.53;100.00;101908.25;5009531;28;20239;-57
2022/03/04 05:56:06;;;;;;;6.77;3.60;;;;;;;1.58;100.00;101918.84;5016101;28;20255;-56
2022/03/04 05:58:33;;;;;;;4.90;3.90;;;;;;;1.62;100.00;101919.13;5019050;28;20602;-56
2022/03/04 06:00:59;;;;;;;7.27;3.77;;;;;;;1.57;100.00;101920.53;5017681;28;20953;-58
2022/03/04 06:03:26;;;;;;;4.63;4.03;;;;;;;1.53;100.00;101934.13;5001858;28;20777;-57
2022/03/04 06:05:54;;;;;;;4.23;3.83;;;;;;;1.56;100.00;101930.81;5015585;28;20256;-56
2022/03/04 06:08:20;;;;;;;4.17;3.30;;;;;;;1.66;100.00;101933.09;5014163;28;20748;-56
2022/03/04 06:10:46;;;;;;;7.37;3.63;;;;;;;1.63;100.00;101925.19;5013055;28;20265;-58
2022/03/04 06:13:13;;;;;;;8.03;3.87;;;;;;;1.69;100.00;101941.03;5011782;28;20232;-57
2022/03/04 06:15:39;;;;;;;12.30;4.50;;;;;;;1.64;100.00;101947.66;5023498;28;20247;-56
2022/03/04 06:18:05;;;;;;;7.43;4.17;;;;;;;1.65;100.00;101949.44;5013389;28;20232;-57
2022/03/04 06:20:32;;;;;;;7.20;3.97;;;;;;;1.61;100.00;101952.66;5012901;28;20240;-56
2022/03/04 06:23:00;;;;;;;5.00;3.97;;;;;;;1.78;100.00;101948.41;5013240;28;20240;-57
2022/03/04 06:25:26;;;;;;;10.47;4.13;;;;;;;1.71;100.00;101949.78;5003061;28;20235;-57
2022/03/04 06:27:54;;;;;;;4.23;3.50;;;;;;;1.72;100.00;101946.41;5000856;28;20654;-56
2022/03/04 06:30:21;;;;;;;5.70;3.87;;;;;;;1.77;100.00;101955.28;5004142;28;20303;-57
2022/03/04 06:32:47;;;;;;;4.50;2.97;;;;;;;1.71;100.00;101949.78;5005132;28;20270;-56
2022/03/04 06:35:14;;;;;;;6.30;3.87;;;;;;;1.71;100.00;101960.13;5009944;28;20321;-56
2022/03/04 06:37:40;;;;;;;8.13;3.67;;;;;;;1.84;100.00;101954.81;5004022;28;20264;-56
2022/03/04 06:40:09;;;;;;;5.60;2.77;;;;;;;1.81;100.00;101954.63;5003467;28;20255;-57
2022/03/04 06:42:36;;;;;;;7.10;3.13;;;;;;;1.84;100.00;101948.75;5004911;28;20236;-56
2022/03/04 06:45:02;;;;;;;8.87;3.90;;;;;;;1.76;100.00;101955.22;5014712;28;20239;-56
2022/03/04 06:47:29;;;;;;;3.27;2.97;;;;;;;1.78;100.00;101954.47;5008508;28;20873;-57
2022/03/04 06:49:55;;;;;;;9.20;3.40;;;;;;;1.86;100.00;101955.78;5026167;28;20247;-55
2022/03/04 06:52:21;;;;;;;11.43;4.13;;;;;;;1.96;100.00;101961.44;5011284;28;20598;-56
2022/03/04 06:54:48;;;;;;;5.20;3.40;;;;;;;1.97;100.00;101964.13;5020056;28;20236;-57
2022/03/04 06:57:16;;;;;;;3.50;3.00;;;;;;;1.90;100.00;101968.09;5018026;28;20237;-56
2022/03/04 06:59:42;;;;;;;6.80;3.67;;;;;;;1.82;100.00;101969.34;5004754;28;20259;-58
2022/03/04 07:02:10;;;;;;;3.20;3.00;;;;;;;1.78;100.00;101971.72;5018803;28;20254;-56
2022/03/04 07:04:36;;;;;;;4.60;3.13;;;;;;;1.87;100.00;101972.22;5013075;28;20611;-55
2022/03/04 07:07:03;;;;;;;3.83;2.87;;;;;;;1.95;100.00;101967.44;5001118;28;20294;-56
2022/03/04 07:09:29;;;;;;;6.17;3.10;;;;;;;2.08;100.00;101968.19;5018147;28;20294;-57
2022/03/04 07:11:56;;;;;;;3.17;2.50;;;;;;;2.07;100.00;101968.09;5011580;28;20318;-56
2022/03/04 07:14:24;;;;;;;3.33;2.67;;;;;;;1.96;100.00;101966.63;5025183;28;20318;-56
2022/03/04 07:16:50;;;;;;;8.77;3.40;;;;;;;2.02;100.00;101966.97;5010816;28;20240;-56
2022/03/04 07:19:16;;;;;;;4.70;3.27;;;;;;;2.15;100.00;101965.09;5018121;28;20321;-56
2022/03/04 07:21:43;;;;;;;6.47;2.53;;;;;;;2.09;100.00;101966.47;5007881;28;20236;-57
2022/03/04 07:24:09;;;;;;;5.53;3.60;;;;;;;1.99;100.00;101967.69;5004673;28;20748;-56
2022/03/04 07:26:36;;;;;;;4.43;3.50;;;;;;;2.05;100.00;101973.19;4998000;28;20764;-56
2022/03/04 07:29:02;;;;;;;3.27;2.93;;;;;;;2.08;100.00;101967.31;5020305;28;20266;-56
2022/03/04 07:31:30;;;;;;;4.33;3.93;;;;;;;2.09;100.00;101984.63;5024889;28;20235;-57
2022/03/04 07:33:56;;;;;;;4.60;3.70;;;;;;;2.02;100.00;101985.09;5014153;28;20753;-56
2022/03/04 07:36:23;;;;;;;3.67;3.33;;;;;;;2.03;100.00;101982.56;5019305;28;20336;-56
2022/03/04 07:38:49;;;;;;;7.43;4.27;;;;;;;2.03;100.00;101982.56;5020972;28;20247;-57
2022/03/04 07:41:15;;;;;;;3.90;3.50;;;;;;;1.98;100.00;101980.56;5018587;28;20811;-54
2022/03/04 07:43:42;;;;;;;5.27;3.50;;;;;;;2.03;100.00;101989.47;5018294;28;20247;-56
2022/03/04 07:46:08;;;;;;;5.63;3.67;;;;;;;2.00;100.00;101987.63;5015737;28;20954;-55
2022/03/04 07:48:36;;;;;;;5.73;4.00;;;;;;;2.04;100.00;101988.66;5012431;28;20762;-56
2022/03/04 07:51:05;;;;;;;4.67;3.80;;;;;;;2.17;100.00;101995.38;5009218;28;20606;-58
2022/03/04 07:53:31;;;;;;;6.17;4.23;;;;;;;2.17;100.00;101988.50;5014406;28;20734;-56
2022/03/04 07:55:57;;;;;;;5.93;3.67;;;;;;;2.22;100.00;101989.66;5029158;28;20234;-56
2022/03/04 07:58:24;;;;;;;4.00;3.67;;;;;;;2.24;100.00;102000.97;5012405;28;20756;-55
2022/03/04 08:00:50;;;;;;;3.60;3.30;;;;;;;2.20;100.00;101999.03;5012685;28;20859;-55
2022/03/04 08:03:16;;;;;;;5.17;4.27;;;;;;;2.23;100.00;102004.38;5007083;28;20301;-54
2022/03/04 08:05:44;;;;;;;4.60;3.53;;;;;;;2.22;100.00;102002.59;5013724;28;20244;-55
2022/03/04 08:08:10;;;;;;;5.17;3.17;;;;;;;2.23;100.00;102008.66;5004506;28;20897;-56
2022/03/04 08:10:37;;;;;;;5.53;3.67;;;;;;;2.29;100.00;102009.88;5017051;28;20730;-54
2022/03/04 08:13:04;;;;;;;4.93;3.70;;;;;;;2.31;100.00;102017.72;5020604;28;20249;-55
2022/03/04 08:15:31;;;;;;;4.10;2.73;;;;;;;2.35;100.00;102015.41;5015746;28;20287;-56
2022/03/04 08:17:57;;;;;;;3.20;2.90;;;;;;;2.37;100.00;102013.75;5009774;28;20240;-54
2022/03/04 08:20:26;;;;;;;8.77;3.40;;;;;;;2.44;100.00;102019.28;5015453;28;20320;-55
2022/03/04 08:22:54;;;;;;;4.10;3.10;;;;;;;2.51;100.00;102018.78;5027148;28;20255;-53
2022/03/04 08:25:20;;;;;;;3.30;2.70;;;;;;;2.72;100.00;102017.31;5006027;28;20257;-56
2022/03/04 08:27:47;;;;;;;3.03;2.83;;;;;;;2.82;99.54;102016.97;5003316;28;20236;-54
2022/03/04 08:30:14;;;;;;;3.30;2.90;;;;;;;2.83;98.50;102020.44;5012240;28;20362;-55
2022/03/04 08:32:41;;;;;;;3.73;3.40;;;;;;;2.74;97.71;102022.56;5021905;28;20291;-55
2022/03/04 08:35:09;;;;;;;5.20;3.73;;;;;;;2.83;98.45;102023.94;5023916;28;20262;-54
2022/03/04 08:37:36;;;;;;;3.27;2.93;;;;;;;3.00;98.72;102035.16;5013233;28;20247;-57
2022/03/04 08:40:04;;;;;;;7.00;3.13;;;;;;;3.06;97.48;102032.00;5029063;28;20668;-56
2022/03/04 08:42:31;;;;;;;4.17;3.60;;;;;;;3.04;95.48;102033.63;5031696;28;20236;-57
2022/03/04 08:44:57;;;;;;;4.20;3.23;;;;;;;3.47;95.61;102040.94;5023348;28;20244;-55
2022/03/04 08:47:24;;;;;;;3.80;3.10;;;;;;;3.44;96.41;102044.28;5012020;28;20295;-55
2022/03/04 08:49:50;;;;;;;4.53;3.40;;;;;;;3.23;93.18;102044.13;5008414;28;20982;-59
2022/03/04 08:52:16;;;;;;;5.90;3.37;;;;;;;3.23;93.85;102035.41;5006974;28;20232;-57
2022/03/04 08:54:42;;;;;;;5.47;3.73;;;;;;;3.18;94.14;102036.91;5012758;28;20243;-55
2022/03/04 08:57:10;;;;;;;4.10;3.43;;;;;;;3.11;93.09;102034.00;5021974;28;20270;-55
2022/03/04 08:59:38;;;;;;;4.17;2.83;;;;;;;3.13;93.84;102041.88;4998151;28;20233;-56
2022/03/04 09:02:05;;;;;;;5.50;3.87;;;;;;;3.14;93.86;102041.06;5021684;28;20241;-54
2022/03/04 09:04:31;;;;;;;10.00;3.53;;;;;;;3.07;92.94;102037.25;5018518;28;20244;-56
2022/03/04 09:06:57;;;;;;;3.10;2.77;;;;;;;3.07;92.63;102038.97;5019967;28;20246;-55
2022/03/04 09:09:24;;;;;;;9.03;3.80;;;;;;;3.24;93.24;102032.91;5013744;28;20243;-57
2022/03/04 09:11:50;;;;;;;4.27;3.87;;;;;;;3.38;91.30;102045.69;5005007;28;20319;-56
2022/03/04 09:14:19;;;;;;;5.13;3.00;;;;;;;3.43;90.44;102036.41;5003485;28;20282;-55
2022/03/04 09:16:46;;;;;;;4.03;3.03;;;;;;;3.43;89.10;102041.59;4997972;28;20236;-54
2022/03/04 09:19:12;;;;;;;3.73;3.20;;;;;;;3.51;89.05;102037.66;5004726;28;20225;-56
2022/03/04 09:21:39;;;;;;;7.03;3.23;;;;;;;3.50;88.01;102038.47;5013893;28;20241;-55
2022/03/04 09:24:06;;;;;;;6.53;3.23;;;;;;;3.55;86.93;102037.91;5004382;28;20722;-55
2022/03/04 09:26:33;;;;;;;6.80;3.50;;;;;;;3.62;84.69;102035.59;5020437;28;20246;-55
2022/03/04 09:28:59;;;;;;;7.37;3.63;;;;;;;3.53;85.36;102034.31;5006615;28;20229;-55
2022/03/04 09:31:27;;;;;;;3.00;2.80;;;;;;;3.55;85.20;102044.81;5009979;28;20236;-55
2022/03/04 09:33:53;;;;;;;3.97;3.57;;;;;;;3.74;84.13;102043.97;5014651;28;20224;-54
2022/03/04 09:36:20;;;;;;;3.97;3.53;;;;;;;3.85;86.15;102037.56;5004621;28;20244;-54
2022/03/04 09:38:46;;;;;;;3.67;2.60;;;;;;;3.96;83.61;102040.69;5015032;28;20290;-53
2022/03/04 09:41:13;;;;;;;5.13;3.13;;;;;;;3.88;83.94;102039.44;5014641;28;20279;-56
2022/03/04 09:43:40;;;;;;;4.87;2.70;;;;;;;4.17;85.40;102031.28;5019006;28;20291;-55
2022/03/04 09:46:06;;;;;;;3.70;2.97;;;;;;;4.50;84.50;102036.25;5017931;28;20234;-55
2022/03/04 09:48:39;;;;;;;4.83;3.77;;;;;;;4.35;82.26;102040.72;5020357;28;20689;-56
2022/03/04 09:51:07;;;;;;;3.83;2.97;;;;;;;4.33;80.46;102034.59;5010030;28;20224;-55
2022/03/04 09:53:33;;;;;;;4.47;3.53;;;;;;;4.60;80.77;102030.63;5011728;28;20233;-56
2022/03/04 09:55:59;;;;;;;4.95;3.85;;;;;;;4.73;79.75;102040.72;5011361;28;20940;-55
2022/03/04 09:58:26;;;;;;;4.90;3.50;;;;;;;4.85;76.67;102029.09;5013604;28;20237;-55
2022/03/04 10:00:52;;;;;;;3.37;2.80;;;;;;;4.91;76.65;102029.34;5021721;28;20231;-54
2022/03/04 10:03:22;;;;;;;3.57;2.83;;;;;;;4.82;75.41;102021.16;5019882;28;20477;-55
2022/03/04 10:05:54;;;;;;;4.40;4.00;;;;;;;4.58;75.44;102026.16;5004008;28;20541;-55
2022/03/04 10:08:20;;;;;;;5.37;3.90;;;;;;;4.58;76.49;102028.78;5016196;28;20701;-56
2022/03/04 10:10:50;;;;;;;3.40;3.07;;;;;;;4.46;74.94;102023.94;5007810;28;20276;-57
2022/03/04 10:13:17;;;;;;;5.20;3.53;;;;;;;4.26;75.17;102026.50;5004550;28;20643;-56
2022/03/04 10:15:53;;;;;;;4.20;3.03;;;;;;;4.26;75.89;102026.50;5017341;28;20223;-57
2022/03/04 10:18:26;;;;;;;6.33;2.83;;;;;;;4.17;75.39;102030.38;5020158;28;20248;-55
2022/03/04 10:20:53;;;;;;;8.33;4.03;;;;;;;4.18;74.27;102025.28;5012722;28;20843;-55
2022/03/04 10:23:22;;;;;;;4.03;3.45;;;;;;;4.23;74.26;102026.34;5014723;28;20858;-55
2022/03/04 10:25:50;;;;;;;4.13;2.63;;;;;;;4.60;78.41;102032.31;5014153;28;20621;-55
2022/03/04 10:28:17;;;;;;;5.68;3.55;;;;;;;4.55;75.44;102034.72;5008627;28;20442;-56
2022/03/04 10:30:47;;;;;;;7.15;3.83;;;;;;;4.47;72.58;102033.50;5011144;28;20437;-57
2022/03/04 10:46:11;;;;;;;5.57;3.30;;;;;;;4.17;76.65;102031.28;5210457;23;20228;-55
2022/03/04 10:48:37;;;;;;;5.47;3.90;;;;;;;4.27;74.12;102041.28;5011165;28;20951;-56
2022/03/04 10:51:06;;;;;;;4.87;3.27;;;;;;;4.39;75.68;102038.34;5008977;28;20320;-56
2022/03/04 10:53:34;;;;;;;4.97;3.67;;;;;;;4.56;76.75;102036.47;5013078;28;20228;-56
2022/03/04 10:56:02;;;;;;;7.03;4.70;;;;;;;4.34;73.21;102033.75;5002569;28;20335;-55
2022/03/04 10:58:30;;;;;;;7.30;5.67;;;;;;;4.16;71.92;102037.31;5012593;28;20241;-58
2022/03/04 11:00:59;;;;;;;7.93;6.15;;;;;;;4.24;72.74;102038.53;5001178;28;20964;-59
2022/03/04 11:03:28;;;;;;;5.40;5.00;;;;;;;4.24;73.77;102041.13;5004806;28;20244;-57
2022/03/04 11:05:56;;;;;;;5.43;4.93;;;;;;;4.35;74.05;102041.63;5009872;28;20248;-56
2022/03/04 11:08:23;;;;;;;5.70;4.90;;;;;;;4.13;72.33;102042.34;5016611;28;20657;-56
2022/03/04 11:10:50;;;;;;;11.33;4.90;;;;;;;4.12;74.44;102047.50;5009604;28;20299;-58
2022/03/04 11:13:16;;;;;;;7.00;4.63;;;;;;;4.33;74.28;102043.28;5022673;28;20299;-56
2022/03/04 11:15:43;;;;;;;7.47;4.10;;;;;;;4.35;74.36;102040.72;5017079;28;20264;-56
2022/03/04 11:18:11;;;;;;;5.00;4.17;;;;;;;4.43;73.52;102047.19;5023327;28;20236;-56
2022/03/04 11:20:42;;;;;;;3.53;3.13;;;;;;;4.37;73.30;102044.31;5015868;28;20256;-57
2022/03/04 11:23:09;;;;;;;2.73;2.53;;;;;;;4.38;72.92;102036.56;5020576;28;20835;-57
2022/03/04 11:25:37;;;;;;;4.77;2.60;;;;;;;4.48;71.97;102048.28;5015150;28;20236;-57
2022/03/04 11:28:10;;;;;;;3.13;2.83;;;;;;;4.56;70.47;102046.88;5003324;28;21293;-57
2022/03/04 11:30:39;;;;;;;4.33;2.67;;;;;;;4.56;69.85;102041.69;5010899;28;20311;-58
2022/03/04 11:33:08;;;;;;;3.30;2.97;;;;;;;4.78;68.03;102036.63;5003217;28;20616;-56
2022/03/04 11:36:07;;;;;;;4.73;3.93;;;;;;;4.62;66.74;102046.28;5004703;28;21170;-58
2022/03/04 11:38:57;;;;;;;4.53;3.67;;;;;;;4.53;66.77;102049.38;4995677;28;21132;-55